Terminal Aerodrome Forecast
Issued by NWS

Home | Current Version | Previous Version | Text Only | Print | Product List | Glossary On
Versions: 1 2 3 4 5 6 7 8 9 10 11 12 13 14 15 16 17 18 19 20 21 22 23 24 25 26
000
FTUS43 KIND 201900 AAB
TAFBMG
TAF AMD
KBMG 201946Z 2020/2118 29007KT P6SM -SHRA VCTS SCT025CB BKN040
     FM202200 25005KT P6SM SCT045 BKN250
     FM210200 21003KT 6SM BR SCT050 BKN250
     FM211000 19002KT 3SM BR VCTS BKN045CB
     FM211500 22007KT P6SM SCT050 BKN250=

USA.gov is the U.S. government's official web portal to all federal, state and local government web resources and services.